createdAt,value
2019-01-09T00:01:16.523Z,4.47
2019-01-09T00:03:43.728Z,3.77
2019-01-09T00:06:11.056Z,4.10
2019-01-09T00:08:38.295Z,4.03
2019-01-09T00:11:05.505Z,3.60
2019-01-09T00:13:32.729Z,3.23
2019-01-09T00:15:59.968Z,2.73
2019-01-09T00:18:27.685Z,3.00
2019-01-09T00:20:54.932Z,2.70
2019-01-09T00:23:22.168Z,3.67
2019-01-09T00:25:49.410Z,4.00
2019-01-09T00:28:16.663Z,4.43
2019-01-09T00:30:44.024Z,3.80
2019-01-09T00:33:11.219Z,4.77
2019-01-09T00:35:38.774Z,4.67
2019-01-09T00:38:08.889Z,4.70
2019-01-09T00:40:36.103Z,4.90
2019-01-09T00:43:04.573Z,3.53
2019-01-09T00:45:31.838Z,4.00
2019-01-09T00:47:59.053Z,4.70
2019-01-09T00:50:26.385Z,4.33
2019-01-09T00:52:53.640Z,4.87
2019-01-09T00:55:21.029Z,5.20
2019-01-09T00:57:48.326Z,4.40
2019-01-09T01:00:17.109Z,4.57
2019-01-09T01:02:57.087Z,4.10
2019-01-09T01:06:18.016Z,4.73
2019-01-09T01:09:39.568Z,5.27
2019-01-09T01:12:54.532Z,4.83
2019-01-09T01:15:58.477Z,5.10
2019-01-09T01:19:03.926Z,6.33
2019-01-09T01:21:58.736Z,5.97
2019-01-09T01:24:58.063Z,5.30
2019-01-09T01:27:54.636Z,5.60
2019-01-09T01:30:58.558Z,5.73
2019-01-09T01:33:49.334Z,6.00
2019-01-09T01:37:02.116Z,4.83
2019-01-09T01:39:52.745Z,4.20
2019-01-09T01:42:37.958Z,4.90
2019-01-09T01:45:28.696Z,4.30
2019-01-09T01:48:21.320Z,5.07
2019-01-09T01:51:23.226Z,4.97
2019-01-09T01:54:32.005Z,5.30
2019-01-09T01:57:32.010Z,4.50
2019-01-09T02:00:34.843Z,5.43
2019-01-09T02:03:29.493Z,5.17
2019-01-09T02:06:27.170Z,4.73
2019-01-09T02:09:37.798Z,6.37
2019-01-09T02:12:56.133Z,4.50
2019-01-09T02:16:08.555Z,4.93
2019-01-09T02:19:02.231Z,4.77
2019-01-09T02:21:47.907Z,4.17
2019-01-09T02:24:59.179Z,5.67
2019-01-09T02:27:44.423Z,4.47
2019-01-09T02:30:53.244Z,4.83
2019-01-09T02:33:20.548Z,1.00
2019-01-09T02:35:48.342Z,0.97
2019-01-09T02:38:15.592Z,1.10
2019-01-09T02:40:42.917Z,2.20
2019-01-09T02:43:10.129Z,2.20
2019-01-09T02:45:37.350Z,3.20
2019-01-09T02:48:04.698Z,3.57
2019-01-09T02:50:31.932Z,1.80
2019-01-09T02:52:59.187Z,1.40
2019-01-09T02:55:26.420Z,2.00
2019-01-09T02:57:56.898Z,2.50
2019-01-09T03:00:23.077Z,3.23
2019-01-09T03:02:50.303Z,4.40
2019-01-09T03:05:17.623Z,3.83
2019-01-09T03:07:44.837Z,4.50
2019-01-09T03:10:12.464Z,4.87
2019-01-09T03:12:39.757Z,5.00
2019-01-09T03:15:07.314Z,4.20
2019-01-09T03:17:34.510Z,5.40
2019-01-09T03:20:02.689Z,4.67
2019-01-09T03:22:32.014Z,4.97
2019-01-09T03:24:59.245Z,4.73
2019-01-09T03:27:26.499Z,4.97
2019-01-09T03:29:53.773Z,4.97
2019-01-09T03:32:21.041Z,4.13
2019-01-09T03:34:48.313Z,4.40
2019-01-09T03:37:15.527Z,4.10
2019-01-09T03:39:42.966Z,3.60
2019-01-09T03:42:10.208Z,3.63
2019-01-09T03:44:37.484Z,4.57
2019-01-09T03:47:04.709Z,4.83
2019-01-09T03:49:32.065Z,4.80
2019-01-09T03:51:59.492Z,4.60
2019-01-09T03:54:26.808Z,5.27
2019-01-09T03:56:54.328Z,3.90
2019-01-09T03:59:21.568Z,4.30
2019-01-09T04:01:48.985Z,4.60
2019-01-09T04:04:16.221Z,3.00
2019-01-09T04:06:43.455Z,4.33
2019-01-09T04:09:10.707Z,5.10
2019-01-09T04:11:37.979Z,3.97
2019-01-09T04:14:05.205Z,3.23
2019-01-09T04:16:32.435Z,2.87
2019-01-09T04:18:59.674Z,2.60
2019-01-09T04:21:27.077Z,2.23
2019-01-09T04:23:54.355Z,2.33
2019-01-09T04:26:21.551Z,3.40
2019-01-09T04:28:48.831Z,2.60
2019-01-09T04:31:16.065Z,2.20
2019-01-09T04:33:43.329Z,2.40
2019-01-09T04:36:10.535Z,2.50
2019-01-09T04:38:37.787Z,3.37
2019-01-09T04:41:05.126Z,2.63
2019-01-09T04:43:32.448Z,3.33
2019-01-09T04:45:59.699Z,3.87
2019-01-09T04:48:26.902Z,4.13
2019-01-09T04:50:54.124Z,3.80
2019-01-09T04:53:21.399Z,4.40
2019-01-09T04:55:48.586Z,4.57
2019-01-09T04:58:16.141Z,5.33
2019-01-09T05:00:43.374Z,4.67
2019-01-09T05:03:10.591Z,4.53
2019-01-09T05:05:37.797Z,5.13
2019-01-09T05:08:05.148Z,4.77
2019-01-09T05:10:32.405Z,4.13
2019-01-09T05:12:59.615Z,4.83
2019-01-09T05:15:26.878Z,4.03
2019-01-09T05:17:54.120Z,4.47
2019-01-09T05:20:21.387Z,4.67
2019-01-09T05:22:48.584Z,4.00
2019-01-09T05:25:15.825Z,4.17
2019-01-09T05:27:43.119Z,4.40
2019-01-09T05:30:10.346Z,4.13
2019-01-09T05:32:37.928Z,4.63
2019-01-09T05:35:05.145Z,4.93
2019-01-09T05:37:32.377Z,4.67
2019-01-09T05:39:59.621Z,4.80
2019-01-09T05:42:26.872Z,4.67
2019-01-09T05:44:57.774Z,5.33
2019-01-09T05:47:25.241Z,4.90
2019-01-09T05:49:52.481Z,3.43
2019-01-09T05:52:19.776Z,3.13
2019-01-09T05:54:47.028Z,2.80
2019-01-09T05:57:14.264Z,2.30
2019-01-09T05:59:41.499Z,2.80
2019-01-09T06:02:08.720Z,2.77
2019-01-09T06:04:35.943Z,2.30
2019-01-09T06:07:03.219Z,2.37
2019-01-09T06:09:30.479Z,2.17
2019-01-09T06:11:57.682Z,2.23
2019-01-09T06:14:24.924Z,2.83
2019-01-09T06:16:52.155Z,2.30
2019-01-09T06:19:19.818Z,2.07
2019-01-09T06:21:48.228Z,2.23
2019-01-09T06:24:15.454Z,2.70
2019-01-09T06:26:42.812Z,2.00
2019-01-09T06:29:10.056Z,2.30
2019-01-09T06:31:37.341Z,2.83
2019-01-09T06:34:04.647Z,2.73
2019-01-09T06:36:31.887Z,3.10
2019-01-09T06:38:59.129Z,1.97
2019-01-09T06:41:26.339Z,1.87
2019-01-09T06:43:53.568Z,2.70
2019-01-09T06:46:20.801Z,2.70
2019-01-09T06:49:07.819Z,2.77
2019-01-09T06:51:36.970Z,2.37
2019-01-09T06:54:04.256Z,2.20
2019-01-09T06:56:31.429Z,2.30
2019-01-09T06:58:58.701Z,2.30
2019-01-09T07:01:25.905Z,2.23
2019-01-09T07:03:53.249Z,2.50
2019-01-09T07:06:20.801Z,2.40
2019-01-09T07:08:48.042Z,1.87
2019-01-09T07:11:15.259Z,2.33
2019-01-09T07:13:42.627Z,2.10
2019-01-09T07:16:09.875Z,2.83
2019-01-09T07:18:37.216Z,1.87
2019-01-09T07:21:04.682Z,2.67
2019-01-09T07:23:31.906Z,2.97
2019-01-09T07:25:59.156Z,2.60
2019-01-09T07:28:26.403Z,2.50
2019-01-09T07:30:54.031Z,2.60
2019-01-09T07:33:21.355Z,2.43
2019-01-09T07:35:48.605Z,2.50
2019-01-09T07:38:15.845Z,2.60
2019-01-09T07:40:43.070Z,2.57
2019-01-09T07:43:10.342Z,2.87
2019-01-09T07:45:38.046Z,2.27
2019-01-09T07:48:05.449Z,2.50
2019-01-09T07:50:32.772Z,2.30
2019-01-09T07:53:00.072Z,2.83
2019-01-09T07:55:27.695Z,2.73
2019-01-09T07:57:54.926Z,2.93
2019-01-09T08:00:22.204Z,2.30
2019-01-09T08:02:49.711Z,2.43
2019-01-09T08:05:16.967Z,3.10
2019-01-09T08:07:44.226Z,2.43
2019-01-09T08:10:11.470Z,2.33
2019-01-09T08:12:38.744Z,2.80
2019-01-09T08:15:07.111Z,2.40
2019-01-09T08:17:34.345Z,3.20
2019-01-09T08:20:01.571Z,2.67
2019-01-09T08:22:29.824Z,3.40
2019-01-09T08:24:58.006Z,2.97
2019-01-09T08:27:25.329Z,2.70
2019-01-09T08:29:52.549Z,3.27
2019-01-09T08:32:19.841Z,3.33
2019-01-09T08:34:47.116Z,2.63
2019-01-09T08:37:14.469Z,2.13
2019-01-09T08:39:41.686Z,1.90
2019-01-09T08:42:09.081Z,2.00
2019-01-09T08:44:36.359Z,2.70
2019-01-09T08:47:03.663Z,2.50
2019-01-09T08:49:30.975Z,2.50
2019-01-09T08:51:58.213Z,2.10
2019-01-09T08:54:25.446Z,2.63
2019-01-09T08:56:52.696Z,1.80
2019-01-09T08:59:19.918Z,2.50
2019-01-09T09:01:47.140Z,2.70
2019-01-09T09:04:14.389Z,3.10
2019-01-09T09:06:41.635Z,2.47
2019-01-09T09:09:08.970Z,3.50
2019-01-09T09:11:36.208Z,2.73
2019-01-09T09:14:05.039Z,2.63
2019-01-09T09:16:36.701Z,2.73
2019-01-09T09:19:04.607Z,3.03
2019-01-09T09:21:32.061Z,1.80
2019-01-09T09:24:00.758Z,2.27
2019-01-09T09:26:28.071Z,1.90
2019-01-09T09:28:55.313Z,2.17
2019-01-09T09:31:22.563Z,1.93
2019-01-09T09:33:49.976Z,2.20
2019-01-09T09:36:17.393Z,2.40
2019-01-09T09:38:49.735Z,2.47
2019-01-09T09:41:18.964Z,1.90
2019-01-09T09:43:46.262Z,2.43
2019-01-09T09:46:13.491Z,1.80
2019-01-09T09:48:40.697Z,1.80
2019-01-09T09:51:07.982Z,1.93
2019-01-09T09:53:35.602Z,2.10
2019-01-09T09:56:02.854Z,2.37
2019-01-09T09:58:30.132Z,2.30
2019-01-09T10:00:57.346Z,2.30
2019-01-09T10:03:24.579Z,3.20
2019-01-09T10:05:51.828Z,2.17
2019-01-09T10:08:19.129Z,2.63
2019-01-09T10:10:47.077Z,2.10
2019-01-09T10:13:14.360Z,2.40
2019-01-09T10:15:41.565Z,2.83
2019-01-09T10:18:08.856Z,2.67
2019-01-09T10:20:36.102Z,2.70
2019-01-09T10:23:03.843Z,1.90
2019-01-09T10:25:31.102Z,2.47
2019-01-09T10:28:02.649Z,2.20
2019-01-09T10:30:30.351Z,2.10
2019-01-09T10:32:57.705Z,2.37
2019-01-09T10:35:24.988Z,2.23
2019-01-09T10:37:52.237Z,2.40
2019-01-09T10:40:19.823Z,2.20
2019-01-09T10:42:50.817Z,2.33
2019-01-09T10:45:19.776Z,2.00
2019-01-09T10:47:47.031Z,2.30
2019-01-09T10:50:15.164Z,2.70
2019-01-09T10:52:42.389Z,3.27
2019-01-09T10:55:10.644Z,2.40
2019-01-09T10:57:37.921Z,2.53
2019-01-09T11:00:08.345Z,2.30
2019-01-09T11:02:35.625Z,2.47
2019-01-09T11:05:03.821Z,2.13
2019-01-09T11:07:33.409Z,2.17
2019-01-09T11:10:00.681Z,2.20
2019-01-09T11:12:28.054Z,2.30
2019-01-09T11:14:55.541Z,3.50
2019-01-09T11:17:22.850Z,3.57
2019-01-09T11:19:50.205Z,2.73
2019-01-09T11:22:17.433Z,2.83
2019-01-09T11:24:44.763Z,2.97
2019-01-09T11:27:11.995Z,4.27
2019-01-09T11:29:39.443Z,2.33
2019-01-09T11:32:06.874Z,2.33
2019-01-09T11:34:34.227Z,3.03
2019-01-09T11:37:01.583Z,2.20
2019-01-09T11:39:28.840Z,2.40
2019-01-09T11:41:56.085Z,2.50
2019-01-09T11:44:23.603Z,3.00
2019-01-09T11:46:50.861Z,2.00
2019-01-09T11:49:18.087Z,2.07
2019-01-09T11:51:45.455Z,2.60
2019-01-09T11:54:12.714Z,2.13
2019-01-09T11:56:39.995Z,2.80
2019-01-09T11:59:07.269Z,2.20
2019-01-09T12:01:34.485Z,2.20
2019-01-09T12:04:01.777Z,2.70
2019-01-09T12:06:30.495Z,2.23
2019-01-09T12:09:04.430Z,2.20
2019-01-09T12:11:26.876Z,2.20
2019-01-09T12:13:54.116Z,3.10
2019-01-09T12:16:21.329Z,2.40
2019-01-09T12:18:48.626Z,2.60
2019-01-09T12:21:16.903Z,2.40
2019-01-09T12:23:44.364Z,2.73
2019-01-09T12:26:11.722Z,2.40
2019-01-09T12:28:38.965Z,2.57
2019-01-09T12:31:06.242Z,2.27
2019-01-09T12:33:33.594Z,2.47
2019-01-09T12:36:00.964Z,2.50
2019-01-09T12:38:28.233Z,2.83
2019-01-09T12:40:56.869Z,2.30
2019-01-09T12:43:24.164Z,2.30
2019-01-09T12:45:51.488Z,2.13
2019-01-09T12:48:18.917Z,2.33
2019-01-09T12:50:46.219Z,3.17
2019-01-09T12:53:13.663Z,2.13
2019-01-09T12:55:40.908Z,2.27
2019-01-09T12:58:08.185Z,2.10
2019-01-09T13:00:35.429Z,3.17
2019-01-09T13:03:05.701Z,2.40
2019-01-09T13:05:33.011Z,2.17
2019-01-09T13:08:00.252Z,2.40
2019-01-09T13:10:27.498Z,2.50
2019-01-09T13:12:54.903Z,2.37
2019-01-09T13:15:22.163Z,2.00
2019-01-09T13:17:49.463Z,2.13
2019-01-09T13:20:17.283Z,2.20
2019-01-09T13:22:44.628Z,2.70
2019-01-09T13:25:12.865Z,2.27
2019-01-09T13:27:40.196Z,2.20
2019-01-09T13:30:13.347Z,2.07
2019-01-09T13:32:40.736Z,2.17
2019-01-09T13:35:08.315Z,2.80
2019-01-09T13:37:35.655Z,2.60
2019-01-09T13:40:04.081Z,2.07
2019-01-09T13:42:31.393Z,2.33
2019-01-09T13:44:58.714Z,1.90
2019-01-09T13:47:25.990Z,2.20
2019-01-09T13:49:53.243Z,2.27
2019-01-09T13:52:20.466Z,2.17
2019-01-09T13:54:47.704Z,3.17
2019-01-09T13:57:15.010Z,2.63
2019-01-09T13:59:42.289Z,2.40
2019-01-09T14:02:09.524Z,2.77
2019-01-09T14:04:36.798Z,2.03
2019-01-09T14:07:04.252Z,2.00
2019-01-09T14:09:39.218Z,2.40
2019-01-09T14:12:00.591Z,3.30
2019-01-09T14:14:27.992Z,2.20
2019-01-09T14:16:55.261Z,2.53
2019-01-09T14:19:22.550Z,2.33
2019-01-09T14:21:49.782Z,2.60
2019-01-09T14:24:17.038Z,2.10
2019-01-09T14:26:44.361Z,2.00
2019-01-09T14:29:11.605Z,2.17
2019-01-09T14:31:38.943Z,2.03
2019-01-09T14:34:06.281Z,2.37
2019-01-09T14:36:33.574Z,2.03
2019-01-09T14:39:00.839Z,2.63
2019-01-09T14:41:28.170Z,2.30
2019-01-09T14:43:55.409Z,2.67
2019-01-09T14:46:22.826Z,2.50
2019-01-09T14:48:50.099Z,2.57
2019-01-09T14:51:17.365Z,2.43
2019-01-09T14:53:44.692Z,2.40
2019-01-09T14:56:11.932Z,2.73
2019-01-09T14:58:39.197Z,3.00
2019-01-09T15:01:06.478Z,2.93
2019-01-09T15:03:33.737Z,2.50
2019-01-09T15:06:01.054Z,1.90
2019-01-09T15:08:28.345Z,2.57
2019-01-09T15:10:55.662Z,2.67
2019-01-09T15:13:22.947Z,2.20
2019-01-09T15:15:50.204Z,1.83
2019-01-09T15:18:20.235Z,2.83
2019-01-09T15:20:47.454Z,2.20
2019-01-09T15:23:15.380Z,2.00
2019-01-09T15:25:42.627Z,2.10
2019-01-09T15:28:09.974Z,2.50
2019-01-09T15:30:40.251Z,2.13
2019-01-09T15:33:07.514Z,1.87
2019-01-09T15:35:35.070Z,2.03
2019-01-09T15:38:02.977Z,2.67
2019-01-09T15:40:37.980Z,2.13
2019-01-09T15:43:05.858Z,1.97
2019-01-09T15:45:33.069Z,2.37
2019-01-09T15:48:00.337Z,2.20
2019-01-09T15:50:31.408Z,1.93
2019-01-09T15:52:58.980Z,2.53
2019-01-09T15:55:26.230Z,2.30
2019-01-09T15:57:54.015Z,1.87
2019-01-09T16:00:24.063Z,3.00
2019-01-09T16:02:52.815Z,2.00
2019-01-09T16:05:20.148Z,1.87
2019-01-09T16:07:47.624Z,1.87
2019-01-09T16:10:15.535Z,2.03
2019-01-09T16:12:43.206Z,2.10
2019-01-09T16:15:12.404Z,2.57
2019-01-09T16:17:39.699Z,2.30
2019-01-09T16:20:16.312Z,2.20
2019-01-09T16:22:37.433Z,2.33
2019-01-09T16:25:05.793Z,2.40
2019-01-09T16:27:33.032Z,2.23
2019-01-09T16:30:00.798Z,2.60
2019-01-09T16:32:28.145Z,2.20
2019-01-09T16:34:55.448Z,2.10
2019-01-09T16:37:22.698Z,2.57
2019-01-09T16:39:49.926Z,2.70
2019-01-09T16:42:17.235Z,2.90
2019-01-09T16:44:45.513Z,2.73
2019-01-09T16:47:12.776Z,1.90
2019-01-09T16:49:40.318Z,2.50
2019-01-09T16:52:08.955Z,2.17
2019-01-09T16:54:36.227Z,2.10
2019-01-09T16:57:03.798Z,2.50
2019-01-09T16:59:31.124Z,3.10
2019-01-09T17:01:58.356Z,2.53
2019-01-09T17:04:25.926Z,2.50
2019-01-09T17:06:53.214Z,2.03
2019-01-09T17:09:20.509Z,2.70
2019-01-09T17:11:47.909Z,2.27
2019-01-09T17:14:15.222Z,2.20
2019-01-09T17:16:43.063Z,2.67
2019-01-09T17:19:10.458Z,2.97
2019-01-09T17:21:37.763Z,2.67
2019-01-09T17:24:04.996Z,3.00
2019-01-09T17:26:32.216Z,2.70
2019-01-09T17:28:59.469Z,3.73
2019-01-09T17:31:27.041Z,2.47
2019-01-09T17:33:54.271Z,3.37
2019-01-09T17:36:22.429Z,2.90
2019-01-09T17:38:49.682Z,2.27
2019-01-09T17:41:16.892Z,2.10
2019-01-09T17:43:44.144Z,2.90
2019-01-09T17:46:12.069Z,2.57
2019-01-09T17:48:39.313Z,2.53
2019-01-09T17:51:06.623Z,2.80
2019-01-09T17:53:33.859Z,3.47
2019-01-09T17:56:01.125Z,2.70
2019-01-09T17:58:28.809Z,2.50
2019-01-09T18:00:56.191Z,2.40
2019-01-09T18:03:23.801Z,3.10
2019-01-09T18:05:52.816Z,3.30
2019-01-09T18:08:22.268Z,2.50
2019-01-09T18:10:50.669Z,2.83
2019-01-09T18:13:18.031Z,2.60
2019-01-09T18:15:45.799Z,2.03
2019-01-09T18:18:13.053Z,2.70
2019-01-09T18:20:40.693Z,2.60
2019-01-09T18:23:08.073Z,2.50
2019-01-09T18:25:35.375Z,2.60
2019-01-09T18:28:02.623Z,2.67
2019-01-09T18:30:36.362Z,2.60
2019-01-09T18:33:06.773Z,2.53
2019-01-09T18:36:22.053Z,2.60
2019-01-09T18:38:57.908Z,2.20
2019-01-09T18:42:18.571Z,2.63
2019-01-09T18:45:36.736Z,2.63
2019-01-09T18:48:47.134Z,2.20
2019-01-09T18:51:47.758Z,2.20
2019-01-09T18:54:15.034Z,2.17
2019-01-09T18:56:42.308Z,2.57
2019-01-09T18:59:09.898Z,2.63
2019-01-09T19:01:37.186Z,2.47
2019-01-09T19:04:04.456Z,2.10
2019-01-09T19:06:35.446Z,2.17
2019-01-09T19:09:00.939Z,2.60
2019-01-09T19:11:28.221Z,2.50
2019-01-09T19:13:55.530Z,2.50
2019-01-09T19:16:22.757Z,2.40
2019-01-09T19:18:50.060Z,2.13
2019-01-09T19:21:17.422Z,3.00
2019-01-09T19:23:44.797Z,2.00
2019-01-09T19:26:12.452Z,2.30
2019-01-09T19:28:39.702Z,2.33
2019-01-09T19:31:07.145Z,1.90
2019-01-09T19:33:34.545Z,2.23
2019-01-09T19:36:01.837Z,2.07
2019-01-09T19:38:29.048Z,2.30
2019-01-09T19:40:56.348Z,2.50
2019-01-09T19:43:24.886Z,1.97
2019-01-09T19:45:52.419Z,2.13
2019-01-09T19:48:19.662Z,2.97
2019-01-09T19:50:46.971Z,2.73
2019-01-09T19:53:16.281Z,2.73
2019-01-09T19:55:43.652Z,2.70
2019-01-09T19:58:10.975Z,3.00
2019-01-09T20:00:38.325Z,2.27
2019-01-09T20:03:05.651Z,2.33
2019-01-09T20:05:35.709Z,2.07
2019-01-09T20:08:03.255Z,2.60
2019-01-09T20:10:30.783Z,2.00
2019-01-09T20:12:58.080Z,2.07
2019-01-09T20:15:25.321Z,3.20
2019-01-09T20:17:52.645Z,2.10
2019-01-09T20:20:20.420Z,2.70
2019-01-09T20:22:49.126Z,1.80
2019-01-09T20:25:16.646Z,2.33
2019-01-09T20:27:43.893Z,3.33
2019-01-09T20:30:15.332Z,2.50
2019-01-09T20:32:42.801Z,2.20
2019-01-09T20:35:10.906Z,2.47
2019-01-09T20:37:38.420Z,3.73
2019-01-09T20:40:07.581Z,2.27
2019-01-09T20:42:34.828Z,1.90
2019-01-09T20:45:02.183Z,2.40
2019-01-09T20:47:30.805Z,2.20
2019-01-09T20:49:58.512Z,2.30
2019-01-09T20:52:27.062Z,2.00
2019-01-09T20:54:54.390Z,1.77
2019-01-09T20:57:21.740Z,1.80
2019-01-09T20:59:49.120Z,2.00
2019-01-09T21:02:16.435Z,2.40
2019-01-09T21:04:47.297Z,2.10
2019-01-09T21:07:14.729Z,2.37
2019-01-09T21:09:42.065Z,1.90
2019-01-09T21:12:09.586Z,2.10
2019-01-09T21:14:37.022Z,2.40
2019-01-09T21:17:04.338Z,2.53
2019-01-09T21:19:31.615Z,2.53
2019-01-09T21:21:58.897Z,2.37
2019-01-09T21:24:26.206Z,2.30
2019-01-09T21:26:53.427Z,2.20
2019-01-09T21:29:20.769Z,2.00
2019-01-09T21:31:48.072Z,2.47
2019-01-09T21:34:15.473Z,2.00
2019-01-09T21:36:42.766Z,2.03
2019-01-09T21:39:10.156Z,2.00
2019-01-09T21:41:37.397Z,2.30
2019-01-09T21:44:04.789Z,2.20
2019-01-09T21:46:33.451Z,2.00
2019-01-09T21:49:00.828Z,1.80
2019-01-09T21:51:30.645Z,1.93
2019-01-09T21:53:57.949Z,2.73
2019-01-09T21:56:25.174Z,2.10
2019-01-09T21:58:52.420Z,2.57
2019-01-09T22:01:19.910Z,1.97
2019-01-09T22:03:47.479Z,2.20
2019-01-09T22:06:14.845Z,1.90
2019-01-09T22:08:42.203Z,2.03
2019-01-09T22:11:09.557Z,2.07
2019-01-09T22:13:36.873Z,2.40
2019-01-09T22:16:04.366Z,2.17
2019-01-09T22:18:32.151Z,2.47
2019-01-09T22:20:59.366Z,2.20
2019-01-09T22:23:26.623Z,2.30
2019-01-09T22:25:54.021Z,2.30
2019-01-09T22:28:21.315Z,2.40
2019-01-09T22:30:48.572Z,2.37
2019-01-09T22:33:16.074Z,2.40
2019-01-09T22:35:43.468Z,3.13
2019-01-09T22:38:10.824Z,1.93
2019-01-09T22:40:38.066Z,2.23
2019-01-09T22:43:05.373Z,1.80
2019-01-09T22:45:32.607Z,2.43
2019-01-09T22:47:59.863Z,2.10
2019-01-09T22:50:27.407Z,1.87
2019-01-09T22:52:56.723Z,1.90
2019-01-09T22:55:23.972Z,1.73
2019-01-09T22:57:51.241Z,1.97
2019-01-09T23:01:01.576Z,1.83
2019-01-09T23:03:29.813Z,2.47
2019-01-09T23:05:57.036Z,2.73
2019-01-09T23:08:24.276Z,1.83
2019-01-09T23:10:54.734Z,1.67
2019-01-09T23:13:22.815Z,2.07
2019-01-09T23:15:50.528Z,1.80
2019-01-09T23:18:17.989Z,2.23
2019-01-09T23:20:45.215Z,1.67
2019-01-09T23:23:12.467Z,2.00
2019-01-09T23:25:42.645Z,1.87
2019-01-09T23:28:10.010Z,1.90
2019-01-09T23:30:37.356Z,2.00
2019-01-09T23:33:04.900Z,1.73
2019-01-09T23:35:32.285Z,1.63
2019-01-09T23:37:59.531Z,1.63
2019-01-09T23:40:30.294Z,1.97
2019-01-09T23:42:58.115Z,2.07
2019-01-09T23:45:25.453Z,1.70
2019-01-09T23:47:54.815Z,2.10
2019-01-09T23:50:24.467Z,1.53
2019-01-09T23:52:51.704Z,2.20
2019-01-09T23:55:22.495Z,1.80
2019-01-09T23:57:50.084Z,1.93
